Time;durP1;ratioP1;P1;durP2;ratioP2;P2;SDS_P1;SDS_P2;PMS_P1;PMS_P2;Temp;Humidity;BMP_temperature;BMP_pressure;BME280_temperature;BME280_humidity;BME280_pressure;Samples;Min_cycle;Max_cycle;Signal;HPM_P1;HPM_P2
2023/04/18 00:00:36;;;;;;;3.50;3.30;;;7.40;97.30;;;;;;4966438;28;20197;-92
2023/04/18 00:03:02;;;;;;;3.53;3.33;;;7.40;97.30;;;;;;4962084;28;20744;-92
2023/04/18 00:05:28;;;;;;;8.07;3.80;;;7.40;97.30;;;;;;4968487;28;20296;-92
2023/04/18 00:07:54;;;;;;;4.40;2.90;;;7.40;97.30;;;;;;4975916;28;20484;-93
2023/04/18 00:10:19;;;;;;;6.90;6.03;;;7.40;97.30;;;;;;4974019;28;20433;-91
2023/04/18 00:12:46;;;;;;;5.27;4.60;;;7.40;97.30;;;;;;4968928;28;20213;-92
2023/04/18 00:15:11;;;;;;;5.80;5.50;;;7.40;97.30;;;;;;4971660;28;20186;-91
2023/04/18 00:17:37;;;;;;;8.90;3.80;;;7.40;97.30;;;;;;4973554;28;20858;-92
2023/04/18 00:20:05;;;;;;;5.50;3.33;;;7.40;97.30;;;;;;4976591;28;20169;-91
2023/04/18 00:22:31;;;;;;;10.93;4.77;;;7.40;97.30;;;;;;4983722;28;20197;-90
2023/04/18 00:24:56;;;;;;;7.73;4.83;;;7.40;97.30;;;;;;4973849;28;20552;-92
2023/04/18 00:27:22;;;;;;;6.50;3.63;;;7.40;97.30;;;;;;4968286;28;20421;-91
2023/04/18 00:29:48;;;;;;;2.90;2.70;;;7.40;97.30;;;;;;4974906;28;20185;-92
2023/04/18 00:32:14;;;;;;;4.70;3.60;;;7.40;97.30;;;;;;4966605;28;20199;-92
2023/04/18 00:34:39;;;;;;;3.93;3.27;;;7.40;97.30;;;;;;4968256;28;20185;-92
2023/04/18 00:37:08;;;;;;;3.23;3.00;;;7.40;97.30;;;;;;4979734;28;20949;-92
2023/04/18 00:39:34;;;;;;;5.30;3.97;;;7.40;97.30;;;;;;4981414;28;20186;-90
2023/04/18 00:42:03;;;;;;;5.53;4.47;;;7.40;97.30;;;;;;4976036;28;20417;-93
2023/04/18 00:44:29;;;;;;;6.03;4.60;;;7.50;97.30;;;;;;4987082;28;20551;-92
2023/04/18 00:46:55;;;;;;;20.30;5.07;;;7.50;97.30;;;;;;4972533;28;20425;-92
2023/04/18 00:49:21;;;;;;;11.73;5.20;;;7.50;97.30;;;;;;4970498;28;20513;-91
2023/04/18 00:51:48;;;;;;;12.23;6.00;;;7.50;97.30;;;;;;4978259;28;20536;-92
2023/04/18 00:54:17;;;;;;;10.93;4.13;;;7.50;97.30;;;;;;4947759;28;20462;-92
2023/04/18 00:56:43;;;;;;;7.80;3.87;;;7.50;97.30;;;;;;4933569;28;20432;-92
2023/04/18 00:59:09;;;;;;;21.13;7.13;;;7.50;97.30;;;;;;4944241;29;20426;-91
2023/04/18 01:01:35;;;;;;;4.60;4.30;;;7.50;97.30;;;;;;4954475;28;20427;-92
2023/04/18 01:04:01;;;;;;;9.90;6.10;;;7.50;97.30;;;;;;4935720;29;20456;-92
2023/04/18 01:06:27;;;;;;;3.43;3.23;;;7.50;97.30;;;;;;4936884;28;20447;-92
2023/04/18 01:08:54;;;;;;;17.43;4.27;;;7.50;97.30;;;;;;4935798;28;20208;-93
2023/04/18 01:11:20;;;;;;;5.47;5.13;;;7.50;97.30;;;;;;4932837;29;20455;-92
2023/04/18 01:14:03;;;;;;;7.23;3.70;;;7.50;97.30;;;;;;4961314;28;20478;-92
2023/04/18 01:16:31;;;;;;;4.47;4.17;;;7.50;97.30;;;;;;4936055;29;20211;-93
2023/04/18 01:18:57;;;;;;;9.80;5.17;;;7.50;97.30;;;;;;4946476;28;20852;-93
2023/04/18 01:21:23;;;;;;;11.23;6.10;;;7.50;97.30;;;;;;4951223;28;20432;-92
2023/04/18 01:23:50;;;;;;;7.20;5.50;;;7.60;97.30;;;;;;4951008;28;20510;-91
2023/04/18 01:26:15;;;;;;;6.63;4.80;;;7.60;97.30;;;;;;4954340;28;20213;-92
2023/04/18 01:28:41;;;;;;;4.77;4.40;;;7.60;97.30;;;;;;4950942;28;20450;-92
2023/04/18 01:31:06;;;;;;;5.50;4.37;;;7.60;97.30;;;;;;4961051;28;20269;-93
2023/04/18 01:33:32;;;;;;;10.00;4.50;;;7.60;97.30;;;;;;4951777;28;20203;-93
2023/04/18 01:35:57;;;;;;;7.63;5.27;;;7.60;97.30;;;;;;4943157;29;20495;-93
2023/04/18 01:38:23;;;;;;;9.73;5.50;;;7.60;97.30;;;;;;4950112;29;20188;-92
2023/04/18 01:40:49;;;;;;;7.23;5.77;;;7.70;97.30;;;;;;4944848;28;20326;-92
2023/04/18 01:43:14;;;;;;;9.37;5.47;;;7.70;97.30;;;;;;4935581;28;20207;-93
2023/04/18 01:45:40;;;;;;;8.33;5.23;;;7.70;97.30;;;;;;4949600;28;20455;-92
2023/04/18 01:48:06;;;;;;;6.33;5.10;;;7.70;97.30;;;;;;4947152;28;20180;-90
2023/04/18 01:50:31;;;;;;;7.97;3.13;;;7.70;97.30;;;;;;4953130;28;20184;-92
2023/04/18 01:52:57;;;;;;;7.43;6.37;;;7.70;97.30;;;;;;4942963;28;20239;-93
2023/04/18 01:55:22;;;;;;;10.90;5.30;;;7.70;97.30;;;;;;4949866;29;20183;-92
2023/04/18 01:57:49;;;;;;;4.60;3.33;;;7.70;97.30;;;;;;4949232;28;20183;-93
2023/04/18 02:00:15;;;;;;;20.33;5.83;;;7.70;97.30;;;;;;4944674;28;20560;-91
2023/04/18 02:02:41;;;;;;;8.20;4.70;;;7.70;97.30;;;;;;4942871;28;20446;-93
2023/04/18 02:05:07;;;;;;;18.27;6.03;;;7.70;97.30;;;;;;4949535;29;20501;-92
2023/04/18 02:07:33;;;;;;;8.23;4.90;;;7.70;97.30;;;;;;4938711;28;20283;-92
2023/04/18 02:09:58;;;;;;;4.33;4.07;;;7.70;97.30;;;;;;4948896;29;20947;-92
2023/04/18 02:12:24;;;;;;;8.37;4.37;;;7.70;97.30;;;;;;4952625;28;20199;-92
2023/04/18 02:14:52;;;;;;;14.07;8.83;;;7.70;97.30;;;;;;4936594;28;20192;-92
2023/04/18 02:17:22;;;;;;;8.93;3.83;;;7.70;97.30;;;;;;4939274;28;20215;-92
2023/04/18 02:19:48;;;;;;;4.03;2.47;;;7.70;97.30;;;;;;4942974;28;20446;-93
2023/04/18 02:22:14;;;;;;;13.67;6.73;;;7.70;97.30;;;;;;4948490;28;20445;-92
2023/04/18 02:24:41;;;;;;;12.17;7.57;;;7.70;97.30;;;;;;4938321;28;20475;-92
2023/04/18 02:27:07;;;;;;;5.40;5.10;;;7.70;97.30;;;;;;4944248;28;20187;-91
2023/04/18 02:29:34;;;;;;;5.03;3.67;;;7.70;97.30;;;;;;4939888;28;21223;-93
2023/04/18 02:32:47;;;;;;;11.60;6.10;;;7.70;97.30;;;;;;4937862;28;20427;-90
2023/04/18 02:35:13;;;;;;;8.90;6.80;;;7.70;97.30;;;;;;4937252;29;20286;-89
2023/04/18 02:37:38;;;;;;;8.47;6.10;;;7.70;97.30;;;;;;4945267;29;20522;-91
2023/04/18 02:40:06;;;;;;;6.60;4.40;;;7.70;97.30;;;;;;4957369;28;20556;-89
2023/04/18 02:42:31;;;;;;;13.97;6.10;;;7.70;97.30;;;;;;4944584;29;20207;-91
2023/04/18 02:44:57;;;;;;;5.50;3.97;;;7.70;97.30;;;;;;4939305;29;20463;-90
2023/04/18 02:47:22;;;;;;;6.73;6.37;;;7.70;97.30;;;;;;4938646;29;20415;-92
2023/04/18 02:49:48;;;;;;;12.60;6.97;;;7.70;97.30;;;;;;4947832;28;20211;-92
2023/04/18 02:52:14;;;;;;;10.07;4.83;;;7.70;97.30;;;;;;4957886;28;20237;-91
2023/04/18 02:54:40;;;;;;;16.20;7.23;;;7.70;97.30;;;;;;4981951;28;20572;-92
2023/04/18 02:57:05;;;;;;;13.40;4.73;;;7.70;97.30;;;;;;4965322;28;20444;-92
2023/04/18 02:59:31;;;;;;;6.73;4.50;;;7.70;97.30;;;;;;4955927;28;20175;-92
2023/04/18 03:01:57;;;;;;;7.90;5.30;;;7.70;97.30;;;;;;4963190;28;20213;-93
2023/04/18 03:04:22;;;;;;;6.97;5.50;;;7.70;97.30;;;;;;4957751;28;20217;-92
2023/04/18 03:06:48;;;;;;;6.23;3.97;;;7.70;97.30;;;;;;4961785;28;20739;-92
2023/04/18 03:09:15;;;;;;;6.30;4.60;;;7.70;97.30;;;;;;4962740;28;20186;-92
2023/04/18 03:11:43;;;;;;;7.77;4.63;;;7.60;97.30;;;;;;4957534;28;20481;-91
2023/04/18 03:14:09;;;;;;;5.33;4.00;;;7.60;97.30;;;;;;4982076;28;20508;-92
2023/04/18 03:16:35;;;;;;;5.20;4.90;;;7.60;97.30;;;;;;4962875;28;20561;-92
2023/04/18 03:19:00;;;;;;;4.83;3.70;;;7.60;97.30;;;;;;4969942;28;20230;-92
2023/04/18 03:21:26;;;;;;;8.87;4.77;;;7.60;97.30;;;;;;4962902;28;20207;-91
2023/04/18 03:23:52;;;;;;;6.40;5.13;;;7.60;97.30;;;;;;4971792;28;20312;-92
2023/04/18 03:26:18;;;;;;;9.40;6.60;;;7.60;97.30;;;;;;4980675;28;20929;-92
2023/04/18 03:28:43;;;;;;;6.20;5.20;;;7.60;97.30;;;;;;4957911;28;20584;-93
2023/04/18 03:31:09;;;;;;;9.90;6.50;;;7.60;97.30;;;;;;4963712;28;20170;-90
2023/04/18 03:33:35;;;;;;;13.17;6.00;;;7.60;97.30;;;;;;4966936;28;20259;-91
2023/04/18 03:36:00;;;;;;;4.20;2.37;;;7.50;97.30;;;;;;4968809;28;20177;-90
2023/04/18 03:38:26;;;;;;;4.77;3.53;;;7.50;97.30;;;;;;4973352;28;20469;-92
2023/04/18 03:40:52;;;;;;;9.07;3.50;;;7.50;97.30;;;;;;4971150;28;20181;-90
2023/04/18 03:43:19;;;;;;;7.03;3.30;;;7.50;97.30;;;;;;4965980;28;20443;-90
2023/04/18 03:45:48;;;;;;;4.50;3.57;;;7.50;97.30;;;;;;4971508;28;20467;-90
2023/04/18 03:48:14;;;;;;;9.53;7.70;;;7.50;97.30;;;;;;4971938;28;20427;-90
2023/04/18 03:50:40;;;;;;;3.47;3.27;;;7.50;97.30;;;;;;4966138;28;20421;-91
2023/04/18 03:53:05;;;;;;;12.93;5.20;;;7.50;97.30;;;;;;4978773;28;20253;-91
2023/04/18 03:55:32;;;;;;;6.73;4.80;;;7.50;97.30;;;;;;4953936;28;20711;-91
2023/04/18 03:57:58;;;;;;;4.90;3.00;;;7.40;97.30;;;;;;4978630;28;20647;-91
2023/04/18 04:00:24;;;;;;;6.50;6.07;;;7.40;97.30;;;;;;4957849;28;20414;-91
2023/04/18 04:02:49;;;;;;;5.67;2.73;;;7.40;97.30;;;;;;4971014;28;20638;-92
2023/04/18 04:05:15;;;;;;;3.87;3.63;;;7.40;97.30;;;;;;4966773;28;20475;-91
2023/04/18 04:07:41;;;;;;;3.40;2.60;;;7.40;97.30;;;;;;4962783;28;20253;-90
2023/04/18 04:10:07;;;;;;;7.40;5.20;;;7.40;97.30;;;;;;4966779;28;20212;-90
2023/04/18 04:12:32;;;;;;;4.30;4.00;;;7.30;97.30;;;;;;4967771;28;20618;-91
2023/04/18 04:14:58;;;;;;;4.80;4.50;;;7.30;97.30;;;;;;4957864;28;20426;-91
2023/04/18 04:17:23;;;;;;;8.47;3.83;;;7.30;97.30;;;;;;4960518;28;20663;-91
2023/04/18 04:19:50;;;;;;;6.47;3.87;;;7.30;97.30;;;;;;4967468;28;20210;-91
2023/04/18 04:22:15;;;;;;;5.70;4.70;;;7.30;97.30;;;;;;4963915;28;20195;-93
2023/04/18 04:24:41;;;;;;;3.27;2.60;;;7.30;97.30;;;;;;4976286;28;20876;-91
2023/04/18 04:27:07;;;;;;;4.37;2.80;;;7.30;97.30;;;;;;4971623;28;20185;-91
2023/04/18 04:29:34;;;;;;;5.13;3.90;;;7.30;97.30;;;;;;4971643;28;20182;-91
2023/04/18 04:31:59;;;;;;;6.00;3.77;;;7.30;97.30;;;;;;4960533;28;20643;-90
2023/04/18 04:34:25;;;;;;;6.37;4.67;;;7.30;97.30;;;;;;4977684;28;20428;-90
2023/04/18 04:36:52;;;;;;;3.27;3.00;;;7.30;97.30;;;;;;4967149;28;20510;-91
2023/04/18 04:39:18;;;;;;;2.50;2.23;;;7.30;97.30;;;;;;4965641;28;20437;-91
2023/04/18 04:41:48;;;;;;;3.60;3.30;;;7.30;97.30;;;;;;4963948;28;20837;-93
2023/04/18 04:44:16;;;;;;;7.30;5.10;;;7.30;97.30;;;;;;4988265;28;20202;-91
2023/04/18 04:49:15;;;;;;;3.23;3.10;;;7.30;97.30;;;;;;4956716;28;21102;-92
2023/04/18 04:51:41;;;;;;;2.93;2.73;;;7.30;97.30;;;;;;4962892;28;20423;-91
2023/04/18 04:54:07;;;;;;;5.10;4.50;;;7.30;97.30;;;;;;4955965;28;20179;-89
2023/04/18 04:56:33;;;;;;;11.63;4.97;;;7.20;97.30;;;;;;4968424;28;21065;-90
2023/04/18 04:58:58;;;;;;;5.37;3.97;;;7.20;97.30;;;;;;4950834;28;20286;-89
2023/04/18 05:01:24;;;;;;;3.50;3.30;;;7.20;97.30;;;;;;4940485;28;20548;-92
2023/04/18 05:03:51;;;;;;;6.13;3.97;;;7.20;97.30;;;;;;4953590;28;20183;-92
2023/04/18 05:06:21;;;;;;;5.33;5.03;;;7.30;97.30;;;;;;4949503;29;20175;-89
2023/04/18 05:08:48;;;;;;;2.47;2.27;;;7.30;97.30;;;;;;4955346;29;20422;-92
2023/04/18 05:11:13;;;;;;;4.17;2.70;;;7.30;97.30;;;;;;4961353;28;20418;-90
2023/04/18 05:13:39;;;;;;;5.40;4.37;;;7.30;97.30;;;;;;4950052;29;20771;-91
2023/04/18 05:16:05;;;;;;;5.13;4.83;;;7.30;97.30;;;;;;4936745;29;20183;-91
2023/04/18 05:18:31;;;;;;;7.17;3.97;;;7.30;97.30;;;;;;4939689;29;20179;-91
2023/04/18 05:20:56;;;;;;;4.50;3.60;;;7.30;97.30;;;;;;4958126;28;20429;-91
2023/04/18 05:23:22;;;;;;;7.80;2.70;;;7.30;97.30;;;;;;4941765;29;20186;-91
2023/04/18 05:25:47;;;;;;;3.73;3.53;;;7.20;97.30;;;;;;4939552;29;20214;-91
2023/04/18 05:28:13;;;;;;;1.90;1.80;;;7.20;97.30;;;;;;4940748;29;20211;-91
2023/04/18 05:30:39;;;;;;;4.27;4.00;;;7.20;97.30;;;;;;4942754;28;20186;-91
2023/04/18 05:33:04;;;;;;;4.20;3.60;;;7.30;97.30;;;;;;4941437;29;20274;-92
2023/04/18 05:35:30;;;;;;;6.20;3.37;;;7.20;97.30;;;;;;4939804;29;20180;-93
2023/04/18 05:37:57;;;;;;;6.50;4.77;;;7.30;97.30;;;;;;4936010;29;20605;-92
2023/04/18 05:40:22;;;;;;;5.03;4.47;;;7.30;97.30;;;;;;4952859;29;20238;-92
2023/04/18 05:42:48;;;;;;;5.83;3.00;;;7.30;97.30;;;;;;4945434;29;20846;-90
2023/04/18 05:45:13;;;;;;;3.70;2.40;;;7.30;97.30;;;;;;4940472;29;20211;-91
2023/04/18 05:47:39;;;;;;;5.63;3.60;;;7.30;97.30;;;;;;4950598;29;20278;-92
2023/04/18 05:50:05;;;;;;;9.77;5.17;;;7.40;97.30;;;;;;4937412;29;20199;-91
2023/04/18 05:52:31;;;;;;;6.80;4.70;;;7.30;97.30;;;;;;4933608;29;20246;-94
2023/04/18 05:54:56;;;;;;;6.97;3.70;;;7.40;97.30;;;;;;4927650;29;20431;-93
2023/04/18 05:57:22;;;;;;;15.90;6.80;;;7.40;97.30;;;;;;4932387;29;20238;-92
2023/04/18 05:59:47;;;;;;;5.60;4.30;;;7.40;97.30;;;;;;4944535;29;20183;-91
2023/04/18 06:02:13;;;;;;;6.73;5.13;;;7.40;97.30;;;;;;4930104;29;20743;-91
2023/04/18 06:04:40;;;;;;;4.83;3.83;;;7.40;97.30;;;;;;4934117;29;20222;-92
2023/04/18 06:07:06;;;;;;;11.37;3.30;;;7.50;97.30;;;;;;4929726;29;20211;-93
2023/04/18 06:09:32;;;;;;;5.20;3.47;;;7.50;97.30;;;;;;4933376;29;20440;-92
2023/04/18 06:11:57;;;;;;;3.63;3.40;;;7.50;97.30;;;;;;4928346;29;20514;-92
2023/04/18 06:14:23;;;;;;;4.00;2.70;;;7.60;97.30;;;;;;4936784;29;20183;-91
2023/04/18 06:16:49;;;;;;;3.83;3.20;;;7.60;97.30;;;;;;4942887;29;20745;-91
2023/04/18 06:19:14;;;;;;;3.93;3.30;;;7.60;97.30;;;;;;4926360;29;20295;-92
2023/04/18 06:21:41;;;;;;;5.27;4.23;;;7.60;97.30;;;;;;4929069;29;20266;-92
2023/04/18 06:24:07;;;;;;;4.40;4.13;;;7.60;97.30;;;;;;4935292;29;20806;-92
2023/04/18 06:26:33;;;;;;;12.80;2.60;;;7.60;97.30;;;;;;4930297;29;20449;-92
2023/04/18 06:28:59;;;;;;;8.80;4.73;;;7.60;97.30;;;;;;4931528;29;20438;-90
2023/04/18 06:31:24;;;;;;;6.53;3.53;;;7.70;97.30;;;;;;4931374;29;20507;-92
2023/04/18 06:33:50;;;;;;;5.00;3.37;;;7.80;97.30;;;;;;4937840;29;20186;-91
2023/04/18 06:36:15;;;;;;;6.17;2.80;;;7.70;97.30;;;;;;4941589;29;20236;-91
2023/04/18 06:38:41;;;;;;;12.30;4.13;;;7.80;97.30;;;;;;4929217;29;20239;-92
2023/04/18 06:41:06;;;;;;;9.13;4.30;;;7.80;97.30;;;;;;4943364;28;20164;-92
2023/04/18 06:43:32;;;;;;;6.87;3.40;;;7.90;97.30;;;;;;4955029;28;20172;-92
2023/04/18 06:45:58;;;;;;;2.47;2.27;;;8.00;97.30;;;;;;4931696;29;20219;-90
2023/04/18 06:48:23;;;;;;;3.53;2.80;;;7.90;97.30;;;;;;4945519;29;20301;-91
2023/04/18 06:50:49;;;;;;;4.47;2.90;;;7.90;97.30;;;;;;4933454;29;20179;-91
2023/04/18 06:53:14;;;;;;;3.30;3.10;;;8.00;97.30;;;;;;4929699;29;20180;-91
2023/04/18 06:55:40;;;;;;;5.47;3.77;;;8.00;97.30;;;;;;4935769;29;20186;-92
2023/04/18 06:58:07;;;;;;;2.83;2.10;;;8.00;97.30;;;;;;4963234;28;20680;-91
2023/04/18 07:00:32;;;;;;;1.97;1.87;;;8.10;97.30;;;;;;4953665;28;20203;-91
2023/04/18 07:02:58;;;;;;;3.70;3.50;;;8.10;97.30;;;;;;4936191;29;20532;-92
2023/04/18 07:05:23;;;;;;;5.30;2.80;;;8.10;97.30;;;;;;4944162;29;20227;-92
2023/04/18 07:07:49;;;;;;;4.63;3.93;;;8.10;97.30;;;;;;4935949;29;20215;-91
2023/04/18 07:10:14;;;;;;;7.90;3.90;;;8.10;97.30;;;;;;4951810;28;20179;-92
2023/04/18 07:12:40;;;;;;;3.53;2.97;;;8.20;97.30;;;;;;4944039;29;20186;-92
2023/04/18 07:15:06;;;;;;;7.47;2.73;;;8.20;97.30;;;;;;4949199;29;20559;-93
2023/04/18 07:17:31;;;;;;;7.13;4.10;;;8.20;97.30;;;;;;4958260;28;20199;-91
2023/04/18 07:19:57;;;;;;;4.50;4.20;;;8.20;97.30;;;;;;4945730;29;20446;-92
2023/04/18 07:22:23;;;;;;;4.70;2.83;;;8.10;97.30;;;;;;4951765;29;20195;-91
2023/04/18 07:24:48;;;;;;;9.73;4.00;;;8.10;97.30;;;;;;4953576;29;20493;-93
2023/04/18 07:27:14;;;;;;;4.17;3.50;;;8.20;97.30;;;;;;4948347;29;20199;-90
2023/04/18 07:29:39;;;;;;;3.73;2.30;;;8.20;97.30;;;;;;4951730;29;20183;-92
2023/04/18 07:32:05;;;;;;;3.80;3.60;;;8.30;97.30;;;;;;4940924;29;20564;-89
2023/04/18 07:34:32;;;;;;;3.63;2.70;;;8.40;97.30;;;;;;4951310;28;20236;-90
2023/04/18 07:36:58;;;;;;;5.17;4.03;;;8.40;97.30;;;;;;4935925;29;20617;-91
2023/04/18 07:39:24;;;;;;;4.77;4.50;;;8.50;97.30;;;;;;4944118;29;20422;-91
2023/04/18 07:41:49;;;;;;;2.93;2.73;;;8.50;97.30;;;;;;4944734;29;20718;-91
2023/04/18 07:44:15;;;;;;;2.53;2.00;;;8.60;97.30;;;;;;4948433;29;20203;-90
2023/04/18 07:46:40;;;;;;;3.87;2.97;;;8.60;97.30;;;;;;4943289;29;20207;-91
2023/04/18 07:49:06;;;;;;;7.57;2.70;;;8.50;97.30;;;;;;4948566;29;20225;-90
2023/04/18 07:51:31;;;;;;;6.60;2.73;;;8.60;97.30;;;;;;4951571;29;20688;-91
2023/04/18 07:53:58;;;;;;;4.53;4.27;;;8.80;97.30;;;;;;4942404;29;20230;-91
2023/04/18 07:56:24;;;;;;;5.43;2.80;;;8.90;97.30;;;;;;4937705;29;20210;-91
2023/04/18 07:58:50;;;;;;;2.63;2.47;;;9.00;97.30;;;;;;4934705;29;20801;-91
2023/04/18 08:01:17;;;;;;;4.50;3.77;;;9.10;97.30;;;;;;4933858;29;20419;-92
2023/04/18 08:03:44;;;;;;;3.13;2.93;;;9.10;97.30;;;;;;4938613;29;20423;-92
2023/04/18 08:06:10;;;;;;;8.20;4.20;;;9.10;97.30;;;;;;4952960;29;20427;-92
2023/04/18 08:08:35;;;;;;;5.03;2.07;;;9.20;97.30;;;;;;4945433;29;20473;-92
2023/04/18 08:11:01;;;;;;;3.40;2.27;;;9.30;97.30;;;;;;4942988;29;20184;-91
2023/04/18 08:13:27;;;;;;;10.60;5.33;;;9.30;97.30;;;;;;4943673;29;20182;-92
2023/04/18 08:15:54;;;;;;;3.37;2.70;;;9.30;97.30;;;;;;4952891;29;20189;-92
2023/04/18 08:18:21;;;;;;;4.73;2.67;;;9.40;97.30;;;;;;4942665;29;20210;-91
2023/04/18 08:20:47;;;;;;;2.27;2.07;;;9.40;97.30;;;;;;4936718;29;20550;-91
2023/04/18 08:23:13;;;;;;;4.43;3.07;;;9.40;97.30;;;;;;4940079;29;20720;-93
2023/04/18 08:25:39;;;;;;;8.87;4.30;;;9.40;97.30;;;;;;4948313;29;20207;-93
2023/04/18 08:28:04;;;;;;;4.30;2.00;;;9.40;97.30;;;;;;4941518;29;20449;-92
2023/04/18 08:30:30;;;;;;;5.77;3.03;;;9.60;97.30;;;;;;4958245;29;20194;-92
2023/04/18 08:32:56;;;;;;;4.43;2.07;;;9.70;97.30;;;;;;4945697;29;20183;-92
2023/04/18 08:35:21;;;;;;;7.77;5.77;;;9.80;97.30;;;;;;4951530;29;20286;-93
2023/04/18 08:37:47;;;;;;;4.17;3.23;;;9.90;97.30;;;;;;4958151;28;20198;-93
2023/04/18 08:40:12;;;;;;;3.90;3.30;;;10.00;97.30;;;;;;4945925;29;20565;-92
2023/04/18 08:42:41;;;;;;;4.90;3.20;;;10.10;97.30;;;;;;4943978;29;20214;-91
2023/04/18 08:45:08;;;;;;;5.13;2.87;;;10.10;97.30;;;;;;4943873;29;20716;-92
2023/04/18 08:47:34;;;;;;;5.90;3.30;;;10.20;97.30;;;;;;4957368;28;20485;-93
2023/04/18 08:50:00;;;;;;;17.47;4.03;;;10.20;97.30;;;;;;4947285;29;21006;-92
2023/04/18 08:52:29;;;;;;;6.63;3.00;;;10.10;97.30;;;;;;4956416;29;20418;-93
2023/04/18 08:54:56;;;;;;;5.13;3.57;;;10.10;97.30;;;;;;4954947;29;20431;-93
2023/04/18 08:57:26;;;;;;;3.63;2.90;;;10.10;97.30;;;;;;4956017;29;20482;-92
2023/04/18 08:59:52;;;;;;;4.70;4.40;;;10.00;97.30;;;;;;4957575;28;20419;-93
2023/04/18 09:02:22;;;;;;;2.90;2.70;;;10.00;97.30;;;;;;4962598;28;20433;-92
2023/04/18 09:04:51;;;;;;;4.60;3.67;;;10.00;97.30;;;;;;4936881;29;20458;-93
2023/04/18 09:07:19;;;;;;;9.80;4.60;;;10.00;97.30;;;;;;4943585;29;20459;-93
2023/04/18 09:09:50;;;;;;;4.83;4.00;;;10.10;97.30;;;;;;4941784;29;20434;-93
2023/04/18 09:12:27;;;;;;;5.60;3.00;;;10.10;97.30;;;;;;4939822;29;20514;-93
2023/04/18 09:15:14;;;;;;;3.30;3.10;;;10.10;97.30;;;;;;4945969;29;20521;-95
2023/04/18 09:17:52;;;;;;;8.70;4.17;;;10.00;97.30;;;;;;4950981;29;21051;-95
2023/04/18 09:20:33;;;;;;;3.33;2.80;;;10.00;97.30;;;;;;4957596;28;20447;-93
2023/04/18 09:22:59;;;;;;;9.60;4.33;;;10.10;97.30;;;;;;4968948;28;20426;-93
2023/04/18 09:25:41;;;;;;;4.33;3.03;;;10.20;97.30;;;;;;4961517;28;20490;-96
2023/04/18 09:28:22;;;;;;;6.20;5.17;;;10.30;97.30;;;;;;4957385;28;20446;-95
2023/04/18 09:30:51;;;;;;;4.90;3.83;;;10.30;97.30;;;;;;4964604;28;20419;-93
2023/04/18 09:33:16;;;;;;;6.27;4.03;;;10.20;97.30;;;;;;4966891;28;20419;-93
2023/04/18 09:35:42;;;;;;;4.47;2.97;;;10.10;97.30;;;;;;4970683;29;20429;-93
2023/04/18 09:38:08;;;;;;;5.80;3.80;;;10.00;97.30;;;;;;4958966;29;20230;-93
2023/04/18 09:40:34;;;;;;;5.83;4.33;;;10.00;97.30;;;;;;4947276;29;20190;-93
2023/04/18 09:43:00;;;;;;;3.07;2.87;;;10.00;97.30;;;;;;4947100;29;20191;-93
2023/04/18 09:45:34;;;;;;;3.43;3.17;;;10.00;97.30;;;;;;4964364;28;20466;-94
2023/04/18 10:11:21;;;;;;;3.87;2.57;;;10.50;97.30;;;;;;4997579;28;20579;-93
2023/04/18 10:13:48;;;;;;;7.87;5.60;;;10.50;97.30;;;;;;4989097;28;20662;-92
2023/04/18 10:16:15;;;;;;;10.00;4.80;;;10.50;97.30;;;;;;4993015;28;20515;-92
2023/04/18 10:18:42;;;;;;;7.40;3.30;;;10.40;97.30;;;;;;5011291;28;20852;-92
2023/04/18 10:21:10;;;;;;;11.97;5.87;;;10.50;97.30;;;;;;4996426;28;20531;-93
2023/04/18 10:23:42;;;;;;;4.87;4.60;;;10.50;97.30;;;;;;4993796;28;20432;-92
2023/04/18 10:26:08;;;;;;;7.10;4.80;;;10.60;97.30;;;;;;5003456;28;21029;-92
2023/04/18 10:28:51;;;;;;;6.00;4.40;;;10.60;97.30;;;;;;5013341;28;20440;-91
2023/04/18 10:31:17;;;;;;;15.97;3.90;;;10.60;97.30;;;;;;4996155;28;20448;-91
2023/04/18 10:33:47;;;;;;;3.83;3.63;;;10.60;97.30;;;;;;4994709;28;20460;-92
2023/04/18 10:36:16;;;;;;;4.60;3.07;;;10.60;97.30;;;;;;5004468;28;20208;-92
2023/04/18 10:38:51;;;;;;;6.80;4.53;;;10.60;97.30;;;;;;5005179;28;20424;-92
2023/04/18 10:41:26;;;;;;;4.87;4.57;;;10.70;97.30;;;;;;5012456;28;20424;-92
2023/04/18 10:44:13;;;;;;;10.77;4.00;;;10.70;97.30;;;;;;4994703;28;20837;-92
2023/04/18 10:47:00;;;;;;;5.60;3.80;;;10.80;97.30;;;;;;4995760;28;20432;-92
2023/04/18 10:49:27;;;;;;;5.37;4.47;;;10.90;97.30;;;;;;4982526;28;20424;-92
2023/04/18 10:51:55;;;;;;;2.20;1.87;;;11.00;97.30;;;;;;5012113;28;20478;-92
2023/04/18 10:54:37;;;;;;;10.80;6.03;;;11.10;97.30;;;;;;4995142;28;20973;-92
2023/04/18 10:57:04;;;;;;;4.70;3.63;;;11.30;97.30;;;;;;5004766;28;20436;-93
2023/04/18 10:59:32;;;;;;;4.63;1.90;;;11.30;97.30;;;;;;5011343;28;20423;-92
2023/04/18 11:02:24;;;;;;;7.33;3.97;;;11.40;97.30;;;;;;4995333;28;20482;-92
2023/04/18 11:04:55;;;;;;;7.77;4.20;;;11.50;97.30;;;;;;5002925;28;20534;-91
2023/04/18 11:07:44;;;;;;;5.67;4.17;;;11.60;97.30;;;;;;4998491;28;20447;-92
2023/04/18 11:10:11;;;;;;;3.07;2.73;;;11.70;97.30;;;;;;5006458;28;20463;-92
2023/04/18 11:12:38;;;;;;;12.37;6.67;;;11.90;97.30;;;;;;5003301;28;20425;-92
2023/04/18 11:15:20;;;;;;;5.37;3.57;;;12.10;97.30;;;;;;4996030;28;20424;-92
2023/04/18 11:18:06;;;;;;;6.93;4.23;;;12.20;97.30;;;;;;4994563;28;20458;-91
2023/04/18 11:20:44;;;;;;;11.00;4.73;;;12.30;97.30;;;;;;4994491;28;20420;-91
2023/04/18 11:23:21;;;;;;;5.70;3.83;;;12.40;97.30;;;;;;5011338;28;20511;-92
2023/04/18 11:25:50;;;;;;;6.40;4.57;;;12.50;97.30;;;;;;4994299;28;20471;-91
2023/04/18 11:28:19;;;;;;;8.87;5.10;;;12.50;97.30;;;;;;5002794;28;20448;-91
2023/04/18 11:30:45;;;;;;;12.80;3.20;;;12.60;97.30;;;;;;5001537;28;20416;-92
2023/04/18 11:33:12;;;;;;;4.03;3.10;;;12.60;97.30;;;;;;4994681;28;20423;-92
2023/04/18 11:35:40;;;;;;;3.87;2.07;;;12.60;97.30;;;;;;4994630;28;20181;-92
2023/04/18 11:38:07;;;;;;;6.63;5.10;;;12.70;97.30;;;;;;4994665;28;20448;-92
2023/04/18 11:40:32;;;;;;;3.90;2.83;;;12.60;97.30;;;;;;4991418;28;20424;-91
2023/04/18 11:43:02;;;;;;;5.77;5.47;;;12.50;97.30;;;;;;4994764;28;20427;-92
2023/04/18 11:45:28;;;;;;;11.13;4.80;;;12.60;97.30;;;;;;4994594;28;20315;-91
2023/04/18 11:47:57;;;;;;;7.30;4.00;;;12.60;97.30;;;;;;4994181;28;20479;-92
2023/04/18 11:50:23;;;;;;;4.33;3.03;;;12.70;97.30;;;;;;4994116;28;20184;-91
2023/04/18 11:52:50;;;;;;;5.50;3.70;;;12.70;97.30;;;;;;4993756;28;20420;-91
2023/04/18 11:55:20;;;;;;;4.83;3.80;;;12.70;97.30;;;;;;5014090;28;20189;-93
2023/04/18 11:57:50;;;;;;;8.47;4.13;;;12.60;97.30;;;;;;5001259;28;20443;-92
2023/04/18 12:00:30;;;;;;;8.37;6.30;;;12.50;97.30;;;;;;5010622;28;20428;-91
2023/04/18 12:02:57;;;;;;;5.70;3.63;;;12.40;97.30;;;;;;5010706;28;20438;-92
2023/04/18 12:05:34;;;;;;;2.70;2.50;;;12.30;97.30;;;;;;4997716;28;20460;-93
2023/04/18 12:08:11;;;;;;;8.27;3.63;;;12.20;97.30;;;;;;4999283;28;20505;-92
2023/04/18 12:10:45;;;;;;;6.00;4.93;;;12.20;97.30;;;;;;4993156;28;20985;-92
2023/04/18 12:13:10;;;;;;;11.77;4.40;;;12.20;97.30;;;;;;4990720;28;20417;-92
2023/04/18 12:15:38;;;;;;;3.67;3.10;;;12.20;97.30;;;;;;4990570;28;20440;-91
2023/04/18 12:18:04;;;;;;;8.43;4.47;;;12.20;97.30;;;;;;4990031;28;20193;-90
2023/04/18 12:20:51;;;;;;;11.63;6.40;;;12.20;97.30;;;;;;4994899;28;20952;-92
2023/04/18 12:23:34;;;;;;;8.70;5.93;;;12.20;97.30;;;;;;4986080;28;20483;-91
2023/04/18 12:26:02;;;;;;;5.13;4.83;;;12.30;97.30;;;;;;4998868;28;20476;-91
2023/04/18 12:28:28;;;;;;;6.70;4.57;;;12.20;97.30;;;;;;4998623;28;20540;-92
2023/04/18 12:30:54;;;;;;;6.20;3.67;;;12.20;97.30;;;;;;4991773;28;20409;-91
2023/04/18 12:33:20;;;;;;;7.33;3.60;;;12.20;97.30;;;;;;4990750;28;20429;-91
2023/04/18 12:35:49;;;;;;;5.53;5.27;;;12.10;97.30;;;;;;5004019;28;20436;-92
2023/04/18 12:38:18;;;;;;;2.83;2.60;;;12.00;97.30;;;;;;4992399;28;20220;-91
2023/04/18 12:40:43;;;;;;;5.57;5.07;;;12.00;97.30;;;;;;4998733;28;20409;-91
2023/04/18 12:43:09;;;;;;;6.33;4.40;;;11.90;97.30;;;;;;4990097;28;20428;-91
2023/04/18 12:45:34;;;;;;;4.80;2.90;;;11.90;97.30;;;;;;4994931;28;20228;-92
2023/04/18 12:48:00;;;;;;;6.23;3.97;;;11.90;97.30;;;;;;4982230;28;20244;-91
2023/04/18 12:50:26;;;;;;;6.80;5.20;;;11.80;97.30;;;;;;4998438;28;20231;-91
2023/04/18 12:52:53;;;;;;;5.73;3.97;;;11.80;97.30;;;;;;4998544;28;20216;-91
2023/04/18 12:55:21;;;;;;;9.50;4.77;;;11.80;97.30;;;;;;4990684;28;20170;-91
2023/04/18 12:57:50;;;;;;;10.50;4.47;;;11.70;97.30;;;;;;5006506;28;21020;-91
2023/04/18 13:00:16;;;;;;;5.33;4.10;;;11.70;97.30;;;;;;4990474;28;20508;-90
2023/04/18 13:02:43;;;;;;;4.80;3.87;;;11.70;97.30;;;;;;4993043;28;21014;-91
2023/04/18 13:05:11;;;;;;;8.10;3.87;;;11.60;97.30;;;;;;4998212;28;20536;-91
2023/04/18 13:07:39;;;;;;;4.87;2.90;;;11.60;97.30;;;;;;4992157;28;20433;-91
2023/04/18 13:10:09;;;;;;;6.10;4.93;;;11.60;97.30;;;;;;4993910;28;20991;-91
2023/04/18 13:12:35;;;;;;;3.43;2.63;;;11.60;97.30;;;;;;4998374;28;20417;-91
2023/04/18 13:15:00;;;;;;;7.87;3.90;;;11.50;97.30;;;;;;4993500;28;20464;-91
2023/04/18 13:17:26;;;;;;;6.33;3.70;;;11.50;97.30;;;;;;5000768;28;20448;-93
2023/04/18 13:19:51;;;;;;;3.03;2.83;;;11.40;97.30;;;;;;4989205;28;20207;-92